Tiempo atmosférico en la estación meteorológica de Fresno De Sayago, Zamora (804 m.)



Fecha
DESCASC
Temp. máxima en grados centígrados (hora)
DESCASC
Temp. mínima en grados centígrados (hora)
DESCASC
Temp. media en grados centígrados
DESCASC
Racha de viento máxima en m/sg (hora)
DESCASC
Velocidad máxima media en intervalos de 10 minutos(hora)
DESCASC
Precipitaciones diarias en mm
DESCASC
Precipitaciones de 00:00 a 06:00 en mm
DESCASC
Precipitaciones de 06:00 a 12:00 en mm
DESCASC
Precipitaciones de 12:00 a 18:00 en mm
DESCASC
Precipitaciones de 18:00 a 24:00 en mm
DESCASC
16-06-2019 27.8 (18:40) 5.6 (05:20) 16.7 8.89 (16:30) 5.56 (08:30) 0 0 0 0 0
15-06-2019 22.5 (19:00) 3.5 (06:30) 13 8.06 (17:10) 4.44 (17:10) 0 0 0 0 0
14-06-2019 18.5 (15:30) 2.5 (07:00) 10.5 15 (20:40) 9.44 (20:50) 0 0 0 0 0
13-06-2019 21.2 (18:40) 2.1 (00:00) 11.7 13.61 (17:30) 7.22 (18:10) 0 0 0 0 0
12-06-2019 20.7 (18:40) 3 (00:00) 11.9 9.44 (18:30) 5.83 (18:30) 0 0 0 0 0
11-06-2019 19.7 (17:50) 10.1 (00:00) 14.9 11.39 (17:10) 7.22 (11:20) 0 0 0 0 0
10-06-2019 22.1 (18:10) 3.1 (00:00) 12.6 12.78 (17:40) 6.94 (22:30) 0 0 0 0 0
09-06-2019 20.6 (16:30) 4 (00:00) 12.3 12.5 (19:40) 8.06 (18:30) 0 0 0 0 0
08-06-2019 24.7 (17:40) 2.2 (00:00) 13.5 10 (19:50) 6.11 (11:50) 0 0 0 0 0
07-06-2019 17 (19:20) 5.8 (00:00) 11.4 12.78 (03:30) 8.06 (01:30) 0 0 0 0 0
06-06-2019 19.3 (16:50) 1.3 (00:00) 10.3 25.56 (19:40) 16.11 (20:30) 7 0 0 0 7
05-06-2019 16.4 (17:50) 6 (00:00) 11.2 15.83 (11:40) 9.17 (16:30) 0 0 0 0 0
04-06-2019 20.3 (14:40) 9.4 (00:00) 14.8 15.83 (17:40) 10.28 (15:50) 0 0 0 0 0
03-06-2019 27.6 (17:40) 11 (00:00) 19.3 15 (18:40) 8.89 (18:30) 0 0 0 0 0
02-06-2019 29.6 (16:40) 12.2 (00:00) 20.9 11.67 (18:40) 7.5 (15:20) 0 0 0 0 0
01-06-2019 32.7 (17:40) 8.9 (00:00) 20.8 9.17 (15:40) 5.56 (16:50) 0 0 0 0 0
31-05-2019 32.5 (18:40) 10.3 (00:00) 21.4 10 (10:40) 7.5 (09:30) 0 0 0 0 0
30-05-2019 29.5 (18:10) 7 (00:00) 18.3 11.39 (13:00) 6.67 (10:30) 0 0 0 0 0
29-05-2019 24.5 (17:40) 4.5 (00:00) 14.5 11.39 (09:40) 8.61 (00:10) 0 0 0 0 0
28-05-2019 25 (19:00) 5.2 (00:00) 15.1 13.89 (23:40) 8.61 (00:10) 0 0 0 0 0
27-05-2019 27.3 (18:40) 8.1 (00:00) 17.7 11.39 (23:10) 8.33 (23:10) 0 0 0 0 0
26-05-2019 28.2 (19:50) 3.5 (00:00) 15.9 8.06 (16:20) 5.83 (01:50) 0 0 0 0 0
25-05-2019 23 (19:00) 2.7 (00:00) 12.9 11.94 (09:40) 7.5 (00:20) 0 0 0 0 0
24-05-2019 22.4 (18:00) 8 (00:00) 15.2 13.33 (18:30) 8.33 (20:50) 0 0 0 0 0
23-05-2019 23.7 (17:10) 9.2 (00:00) 16.5 11.67 (16:10) 7.5 (20:00) 0 0 0 0 0
22-05-2019 25.9 (17:40) 5 (00:00) 15.4 9.17 (15:40) 6.11 (08:30) 0 0 0 0 0
21-05-2019 24.1 (19:20) 3.3 (06:40) 13.7 6.67 (14:50) 4.72 (09:00) 0 0 0 0 0

Gráficas

Temp. máximas Temp. mínimas Temp. medias Precipitaciones Rachas de viento máximas Velocidades máximas media en intervalos de 10 minutos

Datos horarios

Fecha y hora oficial Temperatura (ºC) Velocidad del viento (km/h) Dirección del viento Racha (km/h) Dirección de racha Precipitación (mm) Presión (hPa) Tendencia (hPa) Humedad (%)
2019-06-19 23:00:00 16.3 8 Noroeste 11 Noroeste 0 -- -- 46
2019-06-19 22:00:00 17.3 7 Noroeste 26 Oeste 0 -- -- 43
2019-06-19 21:00:00 21.1 19 Oeste 32 Oeste 0 -- -- 32
2019-06-19 20:00:00 21.2 22 Oeste 36 Oeste 0 -- -- 32
2019-06-19 19:00:00 21.9 21 Oeste 37 Oeste 0 -- -- 31
2019-06-19 18:00:00 21.4 27 Oeste 41 Oeste 0 -- -- 34
2019-06-19 17:00:00 21.4 24 Oeste 37 Oeste 0 -- -- 37
2019-06-19 16:00:00 20.1 26 Sudoeste 43 Oeste 0 -- -- 44
2019-06-19 15:00:00 19.5 22 Sudoeste -- -- -- -- -- 44
2019-06-19 14:00:00 18.7 24 Sudoeste 34 Sudoeste 0 -- -- 49
2019-06-19 13:00:00 16.8 21 Sudoeste 32 Sudoeste 0 -- -- 57
2019-06-19 12:00:00 17 17 Sudoeste 32 Sudoeste 0 -- -- 55
2019-06-19 11:00:00 16.4 21 Oeste 31 Oeste 0 -- -- 61
2019-06-19 10:00:00 14.2 12 Sudoeste 30 Oeste 0 -- -- 89
2019-06-19 09:00:00 14.8 21 Oeste 30 Sudoeste 0 -- -- 68
2019-06-19 08:00:00 14.3 15 Sudoeste 22 Sudoeste 0 -- -- 73
2019-06-19 07:00:00 13.9 10 Sudoeste 14 Sudoeste 0 -- -- 73
2019-06-19 06:00:00 13.9 12 Sudoeste 20 Sudoeste 0 -- -- 74
2019-06-19 05:00:00 13.4 11 Sudoeste 21 Sudoeste 0 -- -- 74
2019-06-19 04:00:00 12.6 10 Sudoeste 16 Sudoeste 0 -- -- 91
2019-06-19 03:00:00 11.6 11 Sudoeste 14 Sudoeste 0 -- -- 94
2019-06-19 02:00:00 12.1 3 Sur 18 Oeste 0 -- -- 86
2019-06-19 01:00:00 14.3 13 Oeste 24 Sudoeste 0 -- -- 71
2019-06-19 00:00:00 14.9 12 Oeste 18 Oeste 0 -- -- 68
2019-06-18 23:00:00 16.4 14 Oeste 21 Oeste 0 -- -- 60
2019-06-18 22:00:00 17.2 16 Oeste 27 Oeste 0 -- -- 55
2019-06-18 21:00:00 18.3 22 Oeste 47 Oeste 0 -- -- 48
2019-06-18 20:00:00 20 24 Sudoeste 55 Sudoeste 0 -- -- 39
2019-06-18 19:00:00 21.9 34 Sudoeste 60 Sudoeste 0 -- -- 31
2019-06-18 18:00:00 23.2 39 Sudoeste 57 Sudoeste 0 -- -- 26
2019-06-18 17:00:00 21.9 35 Sudoeste 69 Sudoeste 0 -- -- 30
2019-06-18 16:00:00 20.4 46 Sudoeste 81 Sudoeste 0 -- -- 37
2019-06-18 15:00:00 21.9 33 Sudoeste 50 Oeste 0 -- -- 33
2019-06-18 14:00:00 21.7 33 Sudoeste 58 Sudoeste 0 -- -- 29
2019-06-18 13:00:00 22.5 33 Sudoeste 60 Sudoeste 0 -- -- 21
2019-06-18 12:00:00 22.2 31 Sudoeste 48 Sur 0 -- -- 17
2019-06-18 11:00:00 20.5 27 Sudoeste 40 Sudoeste 0 -- -- 12
2019-06-18 10:00:00 19 27 Sudoeste 40 Sudoeste 0 -- -- 8
2019-06-18 09:00:00 17.3 25 Sudoeste 34 Sudoeste 0 -- -- 20
2019-06-18 08:00:00 13.8 10 Sudoeste 15 Sudoeste 0 -- -- 39
2019-06-18 07:00:00 11.7 10 Sudoeste 13 Sudoeste 0 -- -- 45
2019-06-18 06:00:00 11.8 10 Sudoeste 13 Sur 0 -- -- 40
2019-06-18 05:00:00 12.7 5 Sudoeste 21 Sudoeste 0 -- -- 38
2019-06-18 04:00:00 15 11 Sur 16 Sudeste 0 -- -- 32
2019-06-18 03:00:00 13 8 Sudeste 10 Sudeste 0 -- -- 36
2019-06-18 02:00:00 12.4 4 Sur 6 Sur 0 -- -- 37
2019-06-18 01:00:00 15.4 5 Este 10 Nordeste 0 -- -- 29
2019-06-18 00:00:00 16.9 10 Nordeste 27 Este 0 -- -- 26
2019-06-17 23:00:00 19 11 Norte 29 Sudoeste 0 -- -- 19
2019-06-17 22:00:00 19 6 Noroeste 24 Noroeste 0 -- -- 20
2019-06-17 21:00:00 21.1 12 Noroeste 25 Noroeste 0 -- -- 16
2019-06-17 20:00:00 23 17 Oeste 25 Noroeste 0 -- -- 15
2019-06-17 19:00:00 23.9 20 Oeste 40 Sudoeste 0 -- -- 13
2019-06-17 18:00:00 24.9 29 Sudoeste 45 Sudoeste 0 -- -- 8
2019-06-17 17:00:00 25.4 23 Sudoeste 41 Sudoeste 0 -- -- 5
2019-06-17 16:00:00 25.9 22 Oeste 43 Sudoeste 0 -- -- 5
2019-06-17 15:00:00 26.4 23 Sudoeste 44 Sudoeste 0 -- -- 6
2019-06-17 14:00:00 27.1 20 Sudoeste 35 Sur 0 -- -- 7
2019-06-17 13:00:00 25.4 21 Sudoeste 36 Sudoeste 0 -- -- 9
2019-06-17 12:00:00 23.7 21 Sudoeste 33 Sur 0 -- -- 13
2019-06-17 11:00:00 21.9 18 Sudoeste 28 Sudoeste 0 -- -- 22
2019-06-17 10:00:00 20.6 12 Sur 19 Sudoeste 0 -- -- 27
2019-06-17 09:00:00 16.3 5 Sudeste 8 Sur 0 -- -- 54
2019-06-17 08:00:00 11.4 4 Sur 7 Sudoeste 0 -- -- 70
2019-06-17 07:00:00 8.3 7 Sudoeste 9 Sur 0 -- -- 85
2019-06-17 06:00:00 8.8 9 Sudoeste 10 Sudoeste 0 -- -- 79
2019-06-17 05:00:00 9.5 3 Sur 6 Sur 0 -- -- 71
2019-06-17 04:00:00 10.6 7 Sudoeste 10 Sudoeste 0 -- -- 64
2019-06-17 03:00:00 12.2 7 Sudoeste 10 Sur 0 -- -- 52
2019-06-17 02:00:00 12.7 8 Sur 13 Oeste 0 -- -- 40
2019-06-17 01:00:00 14.8 10 Oeste 14 Oeste 0 -- -- 36
2019-06-17 00:00:00 15.4 0 Calma 15 Oeste 0 -- -- 28
2019-06-16 23:00:00 17.7 6 Oeste 9 Sudoeste 0 -- -- 21
2019-06-16 22:00:00 20.6 9 Oeste 21 Oeste 0 -- -- 14
2019-06-16 21:00:00 24.9 13 Oeste 28 Oeste 0 -- -- 7
2019-06-16 20:00:00 26.2 17 Oeste 27 Sudoeste 0 -- -- 5
2019-06-16 19:00:00 26.6 17 Sudoeste 31 Oeste 0 -- -- 5
2019-06-16 18:00:00 26.7 17 Sudoeste 31 Oeste 0 -- -- 5
2019-06-16 17:00:00 26.3 16 Sudoeste 32 Sudoeste 0 -- -- 5
2019-06-16 16:00:00 26 14 Sudoeste 23 Sudoeste 0 -- -- 7
2019-06-16 15:00:00 24.5 14 Sudoeste 27 Sudoeste 0 -- -- 8
2019-06-16 14:00:00 25.1 9 Sudoeste 27 Sudoeste 0 -- -- 8
2019-06-16 13:00:00 22.8 10 Oeste 22 Este 0 -- -- 15
2019-06-16 12:00:00 21.3 13 Este 24 Nordeste 0 -- -- 21
2019-06-16 11:00:00 17.1 15 Nordeste 28 Nordeste 0 -- -- 36
2019-06-16 10:00:00 14.1 15 Nordeste 25 Este 0 -- -- 48
2019-06-16 09:00:00 11.1 20 Nordeste 27 Nordeste 0 -- -- 60
2019-06-16 08:00:00 8.5 18 Nordeste 26 Nordeste 0 -- -- 71
2019-06-16 07:00:00 6.7 17 Nordeste 23 Nordeste 0 -- -- 75
2019-06-16 06:00:00 7 10 Nordeste 15 Nordeste 0 -- -- 69
2019-06-16 05:00:00 6.4 5 Nordeste 12 Nordeste 0 -- -- 68
2019-06-16 04:00:00 7.1 12 Nordeste 13 Nordeste 0 -- -- 63
2019-06-16 03:00:00 6.8 5 Nordeste 8 Este 0 -- -- 63
2019-06-16 02:00:00 10.1 3 Noroeste 7 Noroeste 0 -- -- 46
2019-06-16 01:00:00 10.3 5 Noroeste 9 Noroeste 0 -- -- 45
2019-06-16 00:00:00 13.3 6 Noroeste 10 Noroeste 0 -- -- 32
2019-06-15 23:00:00 12.6 3 Noroeste 9 Oeste 0 -- -- 32
2019-06-15 22:00:00 16.4 4 Noroeste 14 Noroeste 0 -- -- 23
2019-06-15 21:00:00 20.9 10 Noroeste 19 Oeste 0 -- -- 14
2019-06-15 20:00:00 21.7 9 Sudoeste 23 Sudoeste 0 -- -- 12
2019-06-15 19:00:00 22.5 8 Oeste 25 Oeste 0 -- -- 12
2019-06-15 18:00:00 21.8 11 Sudoeste 29 Oeste 0 -- -- 13
2019-06-15 17:00:00 21.7 9 Noroeste 24 Sudoeste 0 -- -- 16
2019-06-15 16:00:00 20.5 9 Oeste 28 Oeste 0 -- -- 19
2019-06-15 15:00:00 19.5 11 Sudoeste 24 Oeste 0 -- -- 21
2019-06-15 14:00:00 18.5 9 Sudoeste 23 Oeste 0 -- -- 25
2019-06-15 13:00:00 16.2 10 Sudoeste 19 Oeste 0 -- -- 30
2019-06-15 12:00:00 16.8 7 Sur 18 Oeste 0 -- -- 31
2019-06-15 11:00:00 14 5 Oeste 18 Noroeste 0 -- -- 41
2019-06-15 10:00:00 12.3 10 Noroeste 21 Noroeste 0 -- -- 51
2019-06-15 09:00:00 10.3 10 Oeste 17 Oeste 0 -- -- 62
2019-06-15 08:00:00 6.3 5 Sudoeste 8 Sudoeste 0 -- -- 84
2019-06-15 07:00:00 3.8 6 Sudoeste 13 Sudoeste 0 -- -- 97
2019-06-15 06:00:00 4.1 5 Sudoeste 10 Sudoeste 0 -- -- 96
2019-06-15 05:00:00 4.1 8 Sudoeste 11 Sudoeste 0 -- -- 83
2019-06-15 04:00:00 5.5 7 Sudoeste 10 Sudoeste 0 -- -- 73
2019-06-15 03:00:00 5.9 6 Sudoeste 13 Oeste 0 -- -- 70
2019-06-15 02:00:00 8.2 12 Oeste 21 Oeste 0 -- -- 61
2019-06-15 01:00:00 8.9 15 Oeste 26 Oeste 0 -- -- 56
2019-06-15 00:00:00 10.2 15 Oeste 38 Oeste 0 -- -- 50
2019-06-14 23:00:00 11.2 19 Oeste 32 Oeste 0 -- -- 45
2019-06-14 22:00:00 12.6 24 Oeste 44 Oeste 0 -- -- 40
2019-06-14 21:00:00 14.8 32 Oeste 54 Oeste 0 -- -- 27
2019-06-14 20:00:00 16.9 26 Oeste 45 Oeste 0 -- -- 21
2019-06-14 19:00:00 17.7 27 Oeste 46 Oeste 0 -- -- 18
2019-06-14 18:00:00 17.3 29 Oeste 46 Oeste 0 -- -- 22
2019-06-14 17:00:00 17.8 28 Oeste 45 Oeste 0 -- -- 22
2019-06-14 16:00:00 18.3 28 Sudoeste 44 Oeste 0 -- -- 22
2019-06-14 15:00:00 18.1 24 Oeste 40 Oeste 0 -- -- 24
2019-06-14 14:00:00 17.8 21 Oeste 37 Oeste 0 -- -- 25
2019-06-14 13:00:00 17.1 16 Sudoeste 35 Sudoeste 0 -- -- 27
2019-06-14 12:00:00 15.6 9 Sudoeste 22 Sudoeste 0 -- -- 37
2019-06-14 11:00:00 14.2 5 Oeste 14 Norte 0 -- -- 45
2019-06-14 10:00:00 12.4 5 Norte 15 Nordeste 0 -- -- 53
2019-06-14 09:00:00 10.1 12 Nordeste 15 Nordeste 0 -- -- 63
2019-06-14 08:00:00 6.3 2 Sudoeste 4 Sudoeste 0 -- -- 61
2019-06-14 07:00:00 2.5 0 Calma 6 Noroeste 0 -- -- 72
2019-06-14 06:00:00 4.2 5 Norte 7 Norte 0 -- -- 73
2019-06-14 05:00:00 3.7 2 Sudeste 5 Sudeste 0 -- -- 72
2019-06-14 04:00:00 5.7 3 Noroeste 8 Nordeste 0 -- -- 62
2019-06-14 03:00:00 5.5 6 Nordeste 10 Nordeste 0 -- -- 62
2019-06-14 02:00:00 6.7 0 Calma 9 Noroeste 0 -- -- 52
2019-06-14 01:00:00 10.7 8 Noroeste 10 Noroeste 0 -- -- 41
2019-06-14 00:00:00 11.6 3 Noroeste 8 Norte 0 -- -- 37
2019-06-13 23:00:00 12.7 4 Norte 17 Noroeste 0 -- -- 33
2019-06-13 22:00:00 15.4 12 Noroeste 25 Oeste 0 -- -- 25
2019-06-13 21:00:00 19.4 15 Noroeste 34 Oeste 0 -- -- 16
2019-06-13 20:00:00 20.9 18 Oeste 37 Oeste 0 -- -- 14
2019-06-13 19:00:00 20.8 21 Oeste 41 Oeste 0 -- -- 13
2019-06-13 18:00:00 20.8 23 Oeste 49 Oeste 0 -- -- 14
2019-06-13 17:00:00 20.5 19 Oeste 41 Oeste 0 -- -- 15
2019-06-13 16:00:00 20.5 19 Sudoeste 37 Sudoeste 0 -- -- 15
2019-06-13 15:00:00 20.2 14 Sudoeste 36 Sudoeste 0 -- -- 15
2019-06-13 14:00:00 18.6 17 Sudoeste 33 Sudoeste 0 -- -- 19
2019-06-13 13:00:00 17.7 9 Sudoeste 22 Sudoeste 0 -- -- 23
2019-06-13 12:00:00 16.1 8 Sudoeste 16 Sur 0 -- -- 30
2019-06-13 11:00:00 14.4 5 Noroeste 13 Noroeste 0 -- -- 36
2019-06-13 10:00:00 11.9 6 Norte 14 Nordeste 0 -- -- 49
2019-06-13 09:00:00 9.7 11 Nordeste 19 Nordeste 0 -- -- 58
2019-06-13 08:00:00 8.6 0 Calma 3 Sudeste 0 -- -- 54
2019-06-13 07:00:00 2.1 0 Calma 6 Nordeste 0 -- -- 70
2019-06-13 06:00:00 3 5 Norte 8 Norte 0 -- -- 65
2019-06-13 05:00:00 4.5 5 Norte 11 Norte 0 -- -- 66
2019-06-13 04:00:00 5.3 4 Noroeste 9 Noroeste 0 -- -- 54
2019-06-13 03:00:00 6.4 5 Norte 20 Nordeste 0 -- -- 49
2019-06-13 02:00:00 6.6 3 Sudoeste 4 Oeste 0 -- -- 46
2019-06-13 01:00:00 7.6 2 Noroeste 9 Norte 0 -- -- 42
2019-06-13 00:00:00 10.9 6 Norte 12 Noroeste 0 -- -- 31
2019-06-12 23:00:00 12.1 7 Norte 12 Noroeste 0 -- -- 25
2019-06-12 22:00:00 14.6 7 Norte 18 Noroeste 0 -- -- 18
2019-06-12 21:00:00 19 13 Noroeste 24 Noroeste 0 -- -- 8
2019-06-12 20:00:00 20 16 Oeste 30 Oeste 0 -- -- 6
2019-06-12 19:00:00 20.6 15 Oeste 34 Oeste 0 -- -- 8
2019-06-12 18:00:00 20.4 17 Oeste 32 Oeste 0 -- -- 7
2019-06-12 17:00:00 20.2 10 Noroeste 31 Noroeste 0 -- -- 8
2019-06-12 16:00:00 19.3 12 Oeste 27 Sudoeste 0 -- -- 6
2019-06-12 15:00:00 19.1 8 Sudoeste 28 Oeste 0 -- -- 9
2019-06-12 14:00:00 17.4 10 Sudoeste 19 Sudoeste 0 -- -- 12
2019-06-12 13:00:00 16 8 Sudoeste 20 Oeste 0 -- -- 17
2019-06-12 12:00:00 14.4 12 Este 24 Este 0 -- -- 20
2019-06-12 11:00:00 12.8 15 Este 25 Nordeste 0 -- -- 24
2019-06-12 10:00:00 10.9 19 Nordeste 30 Este 0 -- -- 33
2019-06-12 09:00:00 9 21 Nordeste 26 Nordeste 0 -- -- 42
2019-06-12 08:00:00 7.3 13 Este 20 Nordeste 0 -- -- 50
2019-06-12 07:00:00 3 14 Nordeste 23 Nordeste 0 -- -- 65
2019-06-12 06:00:00 4.6 14 Nordeste 24 Nordeste 0 -- -- 59
2019-06-12 05:00:00 4.7 16 Nordeste 22 Este 0 -- -- 58
2019-06-12 04:00:00 4.7 17 Nordeste 23 Nordeste 0 -- -- 57
2019-06-12 03:00:00 6 17 Nordeste 27 Nordeste 0 -- -- 52
2019-06-12 02:00:00 7.4 17 Nordeste 20 Nordeste 0 -- -- 47
2019-06-12 01:00:00 8.8 15 Nordeste 23 Nordeste 0 -- -- 42
2019-06-12 00:00:00 10.6 18 Nordeste 27 Nordeste 0 -- -- 34
2019-06-11 23:00:00 12.2 18 Nordeste 27 Nordeste 0 -- -- 29
2019-06-11 22:00:00 13.2 16 Nordeste 23 Nordeste 0 -- -- 24
2019-06-11 21:00:00 17.7 12 Nordeste 25 Nordeste 0 -- -- 13
2019-06-11 20:00:00 19 15 Nordeste 30 Norte 0 -- -- 10
2019-06-11 19:00:00 19.1 21 Norte 34 Nordeste 0 -- -- 9
2019-06-11 18:00:00 19.2 17 Nordeste 41 Nordeste 0 -- -- 9
2019-06-11 17:00:00 19.1 17 Nordeste 37 Nordeste 0 -- -- 9
2019-06-11 16:00:00 18.4 21 Nordeste 41 Nordeste 0 -- -- 9
2019-06-11 15:00:00 17.9 18 Norte 39 Norte 0 -- -- 10
2019-06-11 14:00:00 17.5 22 Norte 38 Nordeste 0 -- -- 9
2019-06-11 13:00:00 16.7 21 Nordeste 38 Norte 0 -- -- 21
2019-06-11 12:00:00 15.3 23 Nordeste 39 Nordeste 0 -- -- 25
2019-06-11 11:00:00 13.8 22 Nordeste 33 Nordeste 0 -- -- 29
2019-06-11 10:00:00 12.7 25 Nordeste 38 Norte 0 -- -- 33
2019-06-11 09:00:00 11 23 Nordeste 29 Nordeste 0 -- -- 39
2019-06-11 08:00:00 10.1 15 Nordeste 27 Nordeste 0 -- -- 43
2019-06-11 07:00:00 10.3 18 Nordeste 25 Nordeste 0 -- -- 43
2019-06-11 06:00:00 10.8 14 Nordeste 22 Nordeste 0 -- -- 45
2019-06-11 05:00:00 11 6 Noroeste 20 Noroeste 0 -- -- 51
2019-06-11 04:00:00 11.4 10 Noroeste 20 Noroeste 0 -- -- 49
2019-06-11 03:00:00 11.8 12 Noroeste 24 Noroeste 0 -- -- 46
2019-06-11 02:00:00 12.6 6 Noroeste 27 Noroeste 0 -- -- 42
2019-06-11 01:00:00 13.4 18 Noroeste 33 Noroeste 0 -- -- 39
2019-06-11 00:00:00 13.9 15 Noroeste 33 Noroeste 0 -- -- 36
2019-06-10 23:00:00 15.3 22 Noroeste 40 Noroeste 0 -- -- 33
2019-06-10 22:00:00 16.5 22 Noroeste 33 Noroeste 0 -- -- 31
2019-06-10 21:00:00 18.1 18 Noroeste 36 Noroeste 0 -- -- 17
2019-06-10 20:00:00 20.2 23 Oeste 37 Noroeste 0 -- -- 9
2019-06-10 19:00:00 21.4 23 Oeste 42 Noroeste 0 -- -- 8
2019-06-10 18:00:00 21.9 16 Noroeste 46 Oeste 0 -- -- 9
2019-06-10 17:00:00 21.5 15 Oeste 30 Sudoeste 0 -- -- 15
2019-06-10 16:00:00 21.1 13 Noroeste 27 Oeste 0 -- -- 16
2019-06-10 15:00:00 19.9 10 Noroeste 23 Oeste 0 -- -- 18
2019-06-10 14:00:00 19.1 6 Sudoeste 27 Oeste 0 -- -- 24
2019-06-10 13:00:00 17.5 5 Sudoeste 15 Sudeste 0 -- -- 28
2019-06-10 12:00:00 16.7 3 Norte 18 Nordeste 0 -- -- 33
2019-06-10 11:00:00 14.1 10 Nordeste 16 Nordeste 0 -- -- 57
2019-06-10 10:00:00 12.7 10 Nordeste 17 Nordeste 0 -- -- 70
2019-06-10 09:00:00 10 8 Norte 11 Nordeste 0 -- -- 84
2019-06-10 08:00:00 6.5 7 Nordeste 11 Nordeste 0 -- -- 98
2019-06-10 07:00:00 4 6 Nordeste -- -- 0 -- -- 98
2019-06-10 06:00:00 3.1 6 Nordeste 7 Nordeste 0 -- -- 99
2019-06-10 05:00:00 5.5 0 Calma 7 Este 0 -- -- 85
2019-06-10 04:00:00 5.7 4 Este 8 Nordeste 0 -- -- 78
2019-06-10 03:00:00 6.8 6 Nordeste 12 Norte 0 -- -- 70
2019-06-10 02:00:00 9.2 9 Norte 13 Norte 0 -- -- 58
2019-06-10 01:00:00 10 9 Norte 13 Norte 0 -- -- 57
2019-06-10 00:00:00 10.4 5 Noroeste 13 Oeste 0 -- -- 52
2019-06-09 23:00:00 12 10 Oeste 18 Oeste 0 -- -- 45
2019-06-09 22:00:00 14.7 14 Noroeste 31 Noroeste 0 -- -- 37
2019-06-09 21:00:00 17.9 17 Noroeste 37 Noroeste 0 -- -- 27
2019-06-09 20:00:00 19.3 24 Noroeste 45 Noroeste 0 -- -- 25
2019-06-09 19:00:00 19.6 24 Noroeste 42 Oeste 0 -- -- 23
2019-06-09 18:00:00 20 25 Oeste 43 Oeste 0 -- -- 21
2019-06-09 17:00:00 19.8 23 Oeste 40 Oeste 0 -- -- 19
2019-06-09 16:00:00 20.2 21 Oeste 37 Oeste 0 -- -- 19
2019-06-09 15:00:00 19.2 20 Oeste 34 Oeste 0 -- -- 23
2019-06-09 14:00:00 18.6 20 Oeste 32 Oeste 0 -- -- 21
2019-06-09 13:00:00 17.7 19 Oeste 33 Oeste 0 -- -- 21
2019-06-09 12:00:00 16.6 17 Sudoeste 31 Oeste 0 -- -- 27
2019-06-09 11:00:00 14.7 13 Oeste 23 Oeste 0 -- -- 40
2019-06-09 10:00:00 13 17 Oeste 31 Oeste 0 -- -- 48
2019-06-09 09:00:00 11.3 15 Oeste 21 Oeste 0 -- -- 55
2019-06-09 08:00:00 8.4 3 Sudoeste 5 Oeste 0 -- -- 68
2019-06-09 07:00:00 4 2 Norte 8 Oeste 0 -- -- 84
2019-06-09 06:00:00 5.2 4 Sudoeste 10 Nordeste 0 -- -- 73
2019-06-09 05:00:00 5.9 5 Noroeste 13 Oeste 0 -- -- 68
2019-06-09 04:00:00 8.2 5 Oeste 14 Nordeste 0 -- -- 65
2019-06-09 03:00:00 10.1 10 Oeste 14 Oeste 0 -- -- 55
2019-06-09 02:00:00 11.7 6 Oeste 8 Oeste 0 -- -- 49
2019-06-09 01:00:00 12.2 5 Noroeste 9 Noroeste 0 -- -- 46
2019-06-09 00:00:00 12.6 3 Noroeste 10 Oeste 0 -- -- 41
2019-06-08 23:00:00 13.6 8 Noroeste 17 Noroeste 0 -- -- 38
2019-06-08 22:00:00 16.5 9 Noroeste 22 Noroeste 0 -- -- 28
2019-06-08 21:00:00 19.3 11 Noroeste 31 Noroeste 0 -- -- 19
2019-06-08 20:00:00 20.2 18 Noroeste 36 Noroeste 0 -- -- 16
2019-06-08 19:00:00 22.4 17 Oeste 28 Oeste 0 -- -- 11
2019-06-08 18:00:00 23.4 14 Sudoeste 30 Oeste 0 -- -- 9
2019-06-08 17:00:00 23.3 10 Sudoeste 29 Oeste 0 -- -- 9
2019-06-08 16:00:00 22.7 9 Sur 25 Sudeste 0 -- -- 9
2019-06-08 15:00:00 22.6 12 Este 22 Este 0 -- -- 12
2019-06-08 14:00:00 20.3 8 Nordeste 22 Este 0 -- -- 18
2019-06-08 13:00:00 18.8 15 Este 35 Este 0 -- -- 23
2019-06-08 12:00:00 15.9 20 Este 32 Nordeste 0 -- -- 30
2019-06-08 11:00:00 13.4 18 Nordeste 31 Nordeste 0 -- -- 39
2019-06-08 10:00:00 11 18 Nordeste 27 Este 0 -- -- 53
2019-06-08 09:00:00 7.8 20 Nordeste 32 Nordeste 0 -- -- 66
2019-06-08 08:00:00 5.9 16 Nordeste 20 Nordeste 0 -- -- 75
2019-06-08 07:00:00 3.7 14 Nordeste 19 Nordeste 0 -- -- 88
2019-06-08 06:00:00 3 11 Nordeste 15 Nordeste 0 -- -- 93
2019-06-08 05:00:00 2.9 10 Nordeste 17 Nordeste 0 -- -- 81
2019-06-08 04:00:00 3.9 15 Nordeste 19 Nordeste 0 -- -- 76
2019-06-08 03:00:00 4.3 12 Nordeste 14 Nordeste 0 -- -- 78
2019-06-08 02:00:00 5.2 10 Nordeste 18 Nordeste 0 -- -- 68
2019-06-08 01:00:00 7.9 10 Noroeste 13 Norte 0 -- -- 56
2019-06-08 00:00:00 9.2 6 Norte 9 Norte 0 -- -- 49
2019-06-07 23:00:00 9.5 7 Norte 11 Noroeste 0 -- -- 49
2019-06-07 22:00:00 11.2 8 Noroeste 17 Noroeste 0 -- -- 41
2019-06-07 21:00:00 14.9 14 Oeste 28 Oeste 0 -- -- 26
2019-06-07 20:00:00 16.5 11 Oeste 29 Oeste 0 -- -- 25
2019-06-07 19:00:00 15.2 15 Oeste 30 Oeste 0 -- -- 27
2019-06-07 18:00:00 16.3 17 Oeste 28 Noroeste 0 -- -- 20
2019-06-07 17:00:00 15.9 13 Noroeste 33 Oeste 0 -- -- 24
2019-06-07 16:00:00 15.5 19 Oeste 33 Oeste 0 -- -- 26
2019-06-07 15:00:00 13.9 16 Oeste 35 Oeste 0 -- -- 31
2019-06-07 14:00:00 12.7 19 Oeste 34 Oeste 0 -- -- 35
2019-06-07 13:00:00 12.1 19 Oeste 32 Oeste 0 -- -- 36
2019-06-07 12:00:00 10.6 19 Oeste 31 Noroeste 0 -- -- 49
2019-06-07 11:00:00 9.5 23 Oeste 34 Oeste 0 -- -- 54
2019-06-07 10:00:00 8.2 23 Oeste 40 Oeste 0 -- -- 61
2019-06-07 09:00:00 7.7 29 Oeste 40 Oeste 0 -- -- 64
2019-06-07 08:00:00 7 19 Sudoeste 32 Oeste 0 -- -- 75
2019-06-07 07:00:00 5.8 20 Oeste 39 Oeste 0 -- -- 78
2019-06-07 06:00:00 6.5 28 Oeste 38 Oeste 0 -- -- 76
2019-06-07 05:00:00 6.9 24 Sudoeste 39 Sudoeste 0 -- -- 79
2019-06-07 04:00:00 7.2 26 Sudoeste 46 Sudoeste 0 -- -- 80
2019-06-07 03:00:00 7.2 27 Sudoeste 39 Sudoeste 0 -- -- 79
2019-06-07 02:00:00 7.1 24 Sudoeste 41 Sudoeste 0 -- -- 76
2019-06-07 01:00:00 7.7 25 Oeste 43 Oeste 0 -- -- 76
2019-06-07 00:00:00 8.6 24 Oeste 38 Oeste 0 -- -- 78
2019-06-06 23:00:00 8.4 26 Oeste 51 Oeste 1.2 -- -- 83
2019-06-06 22:00:00 9.3 29 Oeste 67 Oeste 5.8 -- -- 91
2019-06-06 21:00:00 13.9 50 Sudoeste 78 Sudoeste 0 -- -- 50
2019-06-06 20:00:00 15.6 49 Sudoeste 92 Sudoeste 0 -- -- 38
2019-06-06 19:00:00 16.4 43 Sudoeste 76 Sur 0 -- -- 32
2019-06-06 18:00:00 17.1 45 Sudoeste 72 Sudoeste 0 -- -- 30
2019-06-06 17:00:00 19 45 Sudoeste 70 Sudoeste 0 -- -- 25
2019-06-06 16:00:00 18.5 44 Sudoeste 64 Sudoeste 0 -- -- 21
2019-06-06 15:00:00 18.1 37 Sudoeste 55 Sudoeste 0 -- -- 19
2019-06-06 14:00:00 17.6 30 Sudoeste 49 Sudoeste 0 -- -- 19
2019-06-06 13:00:00 14.7 23 Sudoeste 37 Sudoeste 0 -- -- 24
2019-06-06 12:00:00 13.8 19 Sur 36 Sudoeste 0 -- -- 29
2019-06-06 11:00:00 11.9 14 Sur 24 Sur 0 -- -- 35
2019-06-06 10:00:00 10.2 10 Sur 19 Sur 0 -- -- 49
2019-06-06 09:00:00 7.8 9 Sudoeste 13 Sur 0 -- -- 62
2019-06-06 08:00:00 4.2 4 Sudoeste 8 Sur 0 -- -- 67
2019-06-06 07:00:00 1.6 7 Sudeste 10 Sudeste 0 -- -- 80
2019-06-06 06:00:00 2 5 Sur 8 Sur 0 -- -- 75
2019-06-06 05:00:00 2 5 Sur 9 Sudeste 0 -- -- 71
2019-06-06 04:00:00 2.4 0 Calma 4 Sudeste 0 -- -- 65
2019-06-06 03:00:00 4 3 Sur 10 Sudeste 0 -- -- 59
2019-06-06 02:00:00 5.9 8 Oeste 16 Oeste 0 -- -- 54
2019-06-06 01:00:00 6.9 7 Oeste 14 Oeste 0 -- -- 52
2019-06-06 00:00:00 8.3 8 Oeste 21 Noroeste 0 -- -- 47
2019-06-05 23:00:00 10.2 15 Oeste 25 Oeste 0 -- -- 38
2019-06-05 22:00:00 11.6 18 Oeste 36 Oeste 0 -- -- 36
2019-06-05 21:00:00 12.6 23 Oeste 36 Oeste 0 -- -- 31
2019-06-05 20:00:00 13.3 26 Oeste 43 Noroeste 0 -- -- 31
2019-06-05 19:00:00 14.4 24 Oeste 38 Oeste 0 -- -- 26
2019-06-05 18:00:00 15.6 24 Oeste 46 Oeste 0 -- -- 27
2019-06-05 17:00:00 16.1 25 Oeste 45 Oeste 0 -- -- 26
2019-06-05 16:00:00 16 28 Oeste 48 Oeste 0 -- -- 25
2019-06-05 15:00:00 15.4 22 Oeste 44 Oeste 0 -- -- 24
2019-06-05 14:00:00 14.4 30 Oeste 43 Oeste 0 -- -- 32
2019-06-05 13:00:00 13.9 31 Oeste 45 Oeste 0 -- -- 31
2019-06-05 12:00:00 12.2 27 Oeste 57 Oeste 0 -- -- 38
2019-06-05 11:00:00 11.4 28 Oeste 44 Oeste 0 -- -- 42
2019-06-05 10:00:00 10.7 26 Oeste 38 Oeste 0 -- -- 47
2019-06-05 09:00:00 8.7 28 Oeste 48 Oeste 0 -- -- 59
2019-06-05 08:00:00 7.8 23 Oeste 40 Oeste 0 -- -- 67
2019-06-05 07:00:00 6.4 21 Oeste 30 Oeste 0 -- -- 72
2019-06-05 06:00:00 6.4 22 Oeste 32 Oeste 0 -- -- 69
2019-06-05 05:00:00 6.7 21 Oeste 32 Oeste 0 -- -- 67
2019-06-05 04:00:00 7.3 17 Oeste 27 Oeste 0 -- -- 62
2019-06-05 03:00:00 8.2 22 Oeste 31 Oeste 0 -- -- 60
2019-06-05 02:00:00 9.3 22 Oeste 49 Oeste 0 -- -- 53
2019-06-05 01:00:00 10.5 22 Oeste 38 Noroeste 0 -- -- 49
2019-06-05 00:00:00 11.8 21 Oeste 34 Oeste 0 -- -- 47
2019-06-04 23:00:00 13.4 28 Oeste 45 Oeste 0 -- -- 36
2019-06-04 22:00:00 14.7 24 Oeste 33 Oeste 0 -- -- 32
2019-06-04 21:00:00 15.2 23 Oeste 37 Oeste 0 -- -- 36
2019-06-04 20:00:00 16.4 23 Oeste 42 Oeste 0 -- -- 38
2019-06-04 19:00:00 18.2 28 Oeste 48 Oeste 0 -- -- 35
2019-06-04 18:00:00 17.9 33 Oeste 57 Oeste 0 -- -- 40
2019-06-04 17:00:00 17 30 Oeste 48 Noroeste 0 -- -- 44
2019-06-04 16:00:00 17.4 32 Noroeste 51 Oeste 0 -- -- 50
2019-06-04 15:00:00 19.3 27 Oeste 54 Oeste 0 -- -- 37
2019-06-04 14:00:00 19.3 24 Oeste 40 Sudoeste 0 -- -- 35
2019-06-04 13:00:00 19 25 Oeste 37 Oeste 0 -- -- 37
2019-06-04 12:00:00 17.1 22 Sudoeste 35 Oeste 0 -- -- 43
2019-06-04 11:00:00 14.7 19 Sudoeste 33 Oeste 0 -- -- 53
2019-06-04 10:00:00 13.4 22 Oeste 39 Oeste 0 -- -- 58
2019-06-04 09:00:00 13.4 23 Sudoeste 31 Sudoeste 0 -- -- 60
2019-06-04 08:00:00 11.6 10 Sudoeste 18 Sudoeste 0 -- -- 72
2019-06-04 07:00:00 9.4 11 Sudoeste 22 Sudoeste 0 -- -- 78
2019-06-04 06:00:00 10.3 12 Sudoeste 28 Oeste 0 -- -- 74
2019-06-04 05:00:00 11 16 Oeste 24 Oeste 0 -- -- 75
2019-06-04 04:00:00 12 16 Sudoeste 24 Sudoeste 0 -- -- 74
2019-06-04 03:00:00 12.6 14 Sudoeste 21 Oeste 0 -- -- 70
2019-06-04 02:00:00 13.7 16 Oeste 23 Oeste 0 -- -- 64
2019-06-04 01:00:00 15.1 20 Oeste 27 Oeste 0 -- -- 59
2019-06-04 00:00:00 16.2 16 Oeste 24 Oeste 0 -- -- 56
2019-06-03 23:00:00 18.5 19 Oeste 33 Oeste -- -- -- 47
2019-06-03 22:00:00 20.8 25 Oeste 37 Oeste 0 -- -- 41
2019-06-03 21:00:00 23.6 25 Oeste 46 Oeste 0 -- -- 32
2019-06-03 20:00:00 26.3 31 Oeste 42 Sudoeste 0 -- -- 21
2019-06-03 19:00:00 26.7 28 Oeste 54 Oeste 0 -- -- 17
2019-06-03 18:00:00 27.2 31 Oeste 50 Oeste 0 -- -- 15
2019-06-03 17:00:00 27.5 26 Sudoeste 48 Oeste 0 -- -- 15
2019-06-03 16:00:00 27.1 23 Sudoeste 40 Sudoeste 0 -- -- 13
2019-06-03 15:00:00 26.6 21 Oeste 35 Oeste 0 -- -- 13
2019-06-03 14:00:00 25.2 15 Oeste 28 Oeste 0 -- -- 16
2019-06-03 13:00:00 23.7 14 Oeste 24 Oeste 0 -- -- 21
2019-06-03 12:00:00 22.8 9 Oeste 24 Oeste 0 -- -- 18
2019-06-03 11:00:00 21 12 Sudoeste 19 Sudoeste 0 -- -- 23
2019-06-03 10:00:00 19.3 12 Sudoeste 20 Oeste 0 -- -- 29
2019-06-03 09:00:00 15.3 4 Sudoeste 10 Sudoeste 0 -- -- 43
2019-06-03 08:00:00 12.7 6 Sudoeste 9 Sur 0 -- -- 48
2019-06-03 07:00:00 11 2 Sudoeste 11 Sur 0 -- -- 54
2019-06-03 06:00:00 12.9 9 Sudoeste 12 Sudoeste 0 -- -- 48
2019-06-03 05:00:00 14.4 9 Sudoeste 13 Sudoeste 0 -- -- 43
2019-06-03 04:00:00 15 8 Sudoeste 13 Sudoeste 0 -- -- 40
2019-06-03 03:00:00 15.4 9 Sudoeste 11 Sudoeste 0 -- -- 39
2019-06-03 02:00:00 16 7 Sudoeste 10 Sudoeste 0 -- -- 37
2019-06-03 01:00:00 16.9 8 Sudoeste 11 Oeste 0 -- -- 31
2019-06-03 00:00:00 18.6 7 Noroeste 14 Noroeste 0 -- -- 26
2019-06-02 23:00:00 19.9 9 Oeste 18 Oeste 0 -- -- 24
2019-06-02 22:00:00 22.1 9 Noroeste 19 Noroeste 0 -- -- 18
2019-06-02 21:00:00 24.5 13 Noroeste 31 Oeste 0 -- -- 11
2019-06-02 20:00:00 26.6 22 Oeste 34 Oeste 0 -- -- 8
2019-06-02 19:00:00 28.3 21 Oeste 42 Oeste 0 -- -- 6
2019-06-02 18:00:00 29 23 Oeste 37 Oeste 0 -- -- 5
2019-06-02 17:00:00 29.4 21 Oeste 37 Oeste 0 -- -- 5
2019-06-02 16:00:00 28.3 20 Oeste 40 Sudoeste 0 -- -- 5
2019-06-02 15:00:00 29 23 Oeste 40 Sudoeste 0 -- -- 3
2019-06-02 14:00:00 27.8 24 Oeste 34 Oeste 0 -- -- 4
2019-06-02 13:00:00 27.8 15 Sudoeste 27 Oeste 0 -- -- 3
2019-06-02 12:00:00 26.2 12 Oeste 22 Oeste 0 -- -- 5
2019-06-02 11:00:00 24.7 12 Oeste 20 Oeste 0 -- -- 9
2019-06-02 10:00:00 21.1 7 Sudoeste 12 Sudoeste 0 -- -- 23
2019-06-02 09:00:00 16.4 4 Sudoeste 6 Sudoeste 0 -- -- 35
2019-06-02 08:00:00 13.1 4 Sur 8 Sur 0 -- -- 41
2019-06-02 07:00:00 12.5 4 Sur 5 Sur 0 -- -- 41
2019-06-02 06:00:00 12.5 3 Sur 6 Sur 0 -- -- 42
2019-06-02 05:00:00 13.8 5 Sur 9 Sur 0 -- -- 38
2019-06-02 04:00:00 15.2 6 Sur 10 Oeste 0 -- -- 34
2019-06-02 03:00:00 16.2 6 Oeste 9 Oeste 0 -- -- 30
2019-06-02 02:00:00 15.6 3 Sudoeste 9 Oeste 0 -- -- 33
2019-06-02 01:00:00 17.1 5 Oeste 15 Oeste 0 -- -- 31
2019-06-02 00:00:00 19.8 9 Noroeste 13 Noroeste 0 -- -- 24
2019-06-01 23:00:00 21.6 9 Noroeste 16 Noroeste 0 -- -- 21
2019-06-01 22:00:00 24.4 10 Noroeste 23 Noroeste 0 -- -- 18
2019-06-01 21:00:00 30 9 Noroeste 20 Oeste 0 -- -- 6
2019-06-01 20:00:00 31.8 9 Oeste 26 Oeste 0 -- -- 4
2019-06-01 19:00:00 31.9 16 Oeste 30 Oeste 0 -- -- 2
2019-06-01 18:00:00 32.3 10 Oeste 27 Sudoeste 0 -- -- 4
2019-06-01 17:00:00 31.3 14 Oeste 31 Oeste 0 -- -- 4
2019-06-01 16:00:00 30.9 14 Oeste 33 Oeste 0 -- -- 5
2019-06-01 15:00:00 31.2 13 Noroeste 24 Noroeste 0 -- -- 4
2019-06-01 14:00:00 31.1 6 Noroeste 15 Sur 0 -- -- 5
2019-06-01 13:00:00 29.4 7 Oeste 13 Sudoeste 0 -- -- 8
2019-06-01 12:00:00 28.1 4 Oeste 10 Este 0 -- -- 10
2019-06-01 11:00:00 25.1 5 Nordeste 13 Nordeste 0 -- -- 15
2019-06-01 10:00:00 21.4 9 Este 17 Este 0 -- -- 21
2019-06-01 09:00:00 17.9 15 Este 22 Nordeste 0 -- -- 27
2019-06-01 08:00:00 14.5 18 Nordeste 23 Nordeste 0 -- -- 31
2019-06-01 07:00:00 10.5 13 Nordeste 15 Nordeste 0 -- -- 42
2019-06-01 06:00:00 10.5 4 Nordeste 5 Este 0 -- -- 41
2019-06-01 05:00:00 10 4 Sudeste 9 Oeste 0 -- -- 43
2019-06-01 04:00:00 13.7 6 Sudoeste 16 Nordeste 0 -- -- 30
2019-06-01 03:00:00 11.8 2 Sur 6 Sudoeste 0 -- -- 36
2019-06-01 02:00:00 13.3 0 Calma 5 Sudeste 0 -- -- 30
2019-06-01 01:00:00 14.2 4 Sudeste 5 Sudeste 0 -- -- 30
2019-06-01 00:00:00 16.5 0 Calma 9 Oeste 0 -- -- 24
2019-05-31 23:00:00 20.4 0 Calma 7 Sudeste 0 -- -- 11
2019-05-31 22:00:00 22.4 4 Este 13 Nordeste 0 -- -- 11
2019-05-31 21:00:00 31 3 Nordeste 14 Norte 0 -- -- 4
2019-05-31 20:00:00 31.8 6 Norte 19 Oeste 0 -- -- --
2019-05-31 19:00:00 32.9 5 Noroeste 21 Nordeste 0 -- -- --
2019-05-31 18:00:00 31.7 5 Oeste 17 Nordeste 0 -- -- 2
2019-05-31 17:00:00 32 6 Nordeste 21 Norte 0 -- -- 2
2019-05-31 16:00:00 31.9 5 Sudeste 26 Nordeste 0 -- -- 5
2019-05-31 15:00:00 29.3 6 Sudoeste 20 Noroeste 0 -- -- 6
2019-05-31 14:00:00 28.7 7 Sudeste 27 Nordeste 0 -- -- 8
2019-05-31 13:00:00 26.9 13 Nordeste 32 Nordeste 0 -- -- 13
2019-05-31 12:00:00 24.9 22 Nordeste 33 Nordeste 0 -- -- 18
2019-05-31 11:00:00 22 22 Nordeste 36 Nordeste 0 -- -- 27
2019-05-31 10:00:00 18.3 23 Nordeste 33 Nordeste 0 -- -- 39
2019-05-31 09:00:00 15.8 23 Nordeste 32 Nordeste 0 -- -- 51
2019-05-31 08:00:00 12.7 18 Nordeste 23 Nordeste 0 -- -- 62
2019-05-31 07:00:00 10.3 14 Nordeste 25 Nordeste 0 -- -- 66
2019-05-31 06:00:00 10.6 21 Nordeste 24 Nordeste 0 -- -- 59
2019-05-31 05:00:00 11.1 15 Nordeste 18 Nordeste 0 -- -- 54
2019-05-31 04:00:00 11 13 Nordeste 18 Nordeste 0 -- -- 51
2019-05-31 03:00:00 14.6 18 Nordeste 29 Nordeste 0 -- -- 40
2019-05-31 02:00:00 13.5 16 Nordeste 22 Nordeste 0 -- -- 38
2019-05-31 01:00:00 19.3 17 Este 24 Este 0 -- -- 21
2019-05-31 00:00:00 19.8 14 Este 21 Este 0 -- -- 19
2019-05-30 23:00:00 16.9 9 Este 15 Este 0 -- -- 26
2019-05-30 22:00:00 20 10 Este 17 Este 0 -- -- 19
2019-05-30 21:00:00 26.2 15 Este 26 Nordeste 0 -- -- 9
2019-05-30 20:00:00 28 17 Nordeste 32 Nordeste 0 -- -- 5
2019-05-30 19:00:00 28.6 20 Nordeste 32 Nordeste 0 -- -- 5
2019-05-30 18:00:00 29.1 16 Nordeste 36 Nordeste 0 -- -- 6
2019-05-30 17:00:00 28.6 20 Nordeste 36 Nordeste 0 -- -- 8
2019-05-30 16:00:00 27.7 14 Nordeste 30 Este 0 -- -- 7
2019-05-30 15:00:00 26.5 14 Este 30 Nordeste 0 -- -- 10
2019-05-30 14:00:00 25.3 17 Este 31 Este 0 -- -- 11
2019-05-30 13:00:00 23.6 21 Este 41 Este 0 -- -- 16
2019-05-30 12:00:00 21 21 Nordeste 31 Nordeste 0 -- -- 24
2019-05-30 11:00:00 18.8 19 Este 33 Este 0 -- -- 32
2019-05-30 10:00:00 15.8 21 Este 33 Nordeste 0 -- -- 41
2019-05-30 09:00:00 12.8 20 Nordeste 28 Nordeste 0 -- -- 54
2019-05-30 08:00:00 10 15 Nordeste 26 Este 0 -- -- 66
2019-05-30 07:00:00 7.8 18 Nordeste 24 Nordeste 0 -- -- 73
2019-05-30 06:00:00 9.2 17 Nordeste 23 Nordeste 0 -- -- 67
2019-05-30 05:00:00 8.4 18 Nordeste 26 Nordeste 0 -- -- 69
2019-05-30 04:00:00 7.4 14 Este 15 Nordeste 0 -- -- 70
2019-05-30 03:00:00 7.5 12 Nordeste 16 Nordeste 0 -- -- 68
2019-05-30 02:00:00 8.7 14 Este 18 Este 0 -- -- 63
2019-05-30 01:00:00 12.3 14 Este 18 Este 0 -- -- 49
2019-05-30 00:00:00 13.5 10 Este 17 Este 0 -- -- 41
2019-05-29 23:00:00 15.7 10 Este 17 Este 0 -- -- 34
2019-05-29 22:00:00 18.2 12 Este 20 Este 0 -- -- 27
2019-05-29 21:00:00 22.6 14 Este 27 Este 0 -- -- 17
2019-05-29 20:00:00 23.7 18 Nordeste 35 Nordeste 0 -- -- 14
2019-05-29 19:00:00 24 21 Nordeste 35 Nordeste 0 -- -- 13
2019-05-29 18:00:00 24.1 19 Nordeste 38 Nordeste 0 -- -- 16
2019-05-29 17:00:00 23.6 19 Nordeste 35 Este 0 -- -- 18
2019-05-29 16:00:00 22.4 22 Nordeste 40 Este 0 -- -- 18
2019-05-29 15:00:00 21.8 18 Este 30 Este 0 -- -- 19
2019-05-29 14:00:00 20.9 15 Este 33 Este 0 -- -- 20
2019-05-29 13:00:00 19.1 18 Este 33 Este 0 -- -- 24
2019-05-29 12:00:00 16.7 20 Este 34 Este 0 -- -- 29
2019-05-29 11:00:00 14.6 23 Este 41 Este 0 -- -- 34
2019-05-29 10:00:00 13.1 23 Este 41 Este 0 -- -- 39
2019-05-29 09:00:00 10.9 24 Este 35 Este 0 -- -- 46
2019-05-29 08:00:00 8.2 12 Este 17 Este 0 -- -- 60
2019-05-29 07:00:00 5.4 12 Este 21 Este 0 -- -- 69
2019-05-29 06:00:00 5.8 13 Este 19 Este 0 -- -- 67
2019-05-29 05:00:00 6.1 10 Este 19 Este 0 -- -- 60
2019-05-29 04:00:00 6.7 17 Este 23 Nordeste 0 -- -- 57
2019-05-29 03:00:00 7.5 13 Este 22 Nordeste 0 -- -- 52
2019-05-29 02:00:00 9.7 18 Este 31 Este 0 -- -- 43
2019-05-29 01:00:00 11.3 24 Nordeste 40 Nordeste 0 -- -- 39
2019-05-29 00:00:00 13 28 Nordeste 50 Nordeste 0 -- -- 37
2019-05-28 23:00:00 15.4 28 Nordeste 42 Nordeste 0 -- -- 31
2019-05-28 22:00:00 17.6 27 Nordeste 40 Nordeste 0 -- -- 21
2019-05-28 21:00:00 20.8 23 Nordeste 39 Nordeste 0 -- -- 16
2019-05-28 20:00:00 24 11 Nordeste 26 Nordeste 0 -- -- 11
2019-05-28 19:00:00 25 6 Nordeste 25 Este 0 -- -- 9
2019-05-28 18:00:00 24 11 Norte 32 Nordeste 0 -- -- 10
2019-05-28 17:00:00 23.1 16 Norte 33 Nordeste 0 -- -- 9
2019-05-28 16:00:00 22.3 17 Nordeste 33 Nordeste 0 -- -- 12
2019-05-28 15:00:00 20.9 14 Nordeste 36 Nordeste 0 -- -- 16
2019-05-28 14:00:00 19.7 19 Nordeste 35 Norte 0 -- -- 18
2019-05-28 13:00:00 18.1 19 Nordeste 37 Nordeste 0 -- -- 23
2019-05-28 12:00:00 15.8 22 Nordeste 33 Este 0 -- -- 30
2019-05-28 11:00:00 14.2 23 Nordeste 32 Nordeste 0 -- -- 37
2019-05-28 10:00:00 12.5 22 Este 35 Este 0 -- -- 43
2019-05-28 09:00:00 10.4 24 Este 45 Este 0 -- -- 51
2019-05-28 08:00:00 8.2 20 Nordeste 28 Nordeste 0 -- -- 63
2019-05-28 07:00:00 5.2 14 Nordeste 19 Nordeste 0 -- -- 77
2019-05-28 06:00:00 6.7 15 Nordeste 21 Nordeste 0 -- -- 71
2019-05-28 05:00:00 8.2 14 Nordeste 29 Nordeste 0 -- -- 68
2019-05-28 04:00:00 9.5 21 Nordeste 34 Este 0 -- -- 62
2019-05-28 03:00:00 10.3 23 Nordeste 35 Nordeste 0 -- -- 65
2019-05-28 02:00:00 11.6 23 Nordeste 34 Nordeste 0 -- -- 64
2019-05-28 01:00:00 13.2 29 Nordeste 42 Nordeste 0 -- -- 57
2019-05-28 00:00:00 15.7 25 Nordeste 41 Nordeste 0 -- -- 47
2019-05-27 23:00:00 18.7 27 Nordeste 40 Nordeste 0 -- -- 27
2019-05-27 22:00:00 21.1 12 Noroeste 24 Noroeste 0 -- -- 32
2019-05-27 21:00:00 24.4 5 Norte 13 Noroeste 0 -- -- 19
2019-05-27 20:00:00 25.7 8 Norte 19 Noroeste 0 -- -- 16
2019-05-27 19:00:00 25.6 8 Oeste 15 Oeste 0 -- -- 16
2019-05-27 18:00:00 26.4 10 Norte 21 Noroeste 0 -- -- 15
2019-05-27 17:00:00 25.5 11 Norte 30 Sudoeste 0 -- -- 16
2019-05-27 16:00:00 25.9 5 Nordeste 27 Noroeste 0 -- -- 17
2019-05-27 15:00:00 24.3 13 Noroeste 22 Oeste 0 -- -- 16
2019-05-27 14:00:00 22.6 13 Noroeste 21 Noroeste 0 -- -- 24
2019-05-27 13:00:00 22.7 10 Noroeste 21 Oeste 0 -- -- 25
2019-05-27 12:00:00 20.5 11 Nordeste 23 Nordeste 0 -- -- 30
2019-05-27 11:00:00 18.9 11 Nordeste 18 Este 0 -- -- 35
2019-05-27 10:00:00 17.5 12 Este 18 Este 0 -- -- 37
2019-05-27 09:00:00 13.9 9 Este 21 Este 0 -- -- 56
2019-05-27 08:00:00 10.7 10 Nordeste 13 Nordeste 0 -- -- 70
2019-05-27 07:00:00 8.1 10 Nordeste 12 Nordeste 0 -- -- 77
2019-05-27 06:00:00 8.7 3 Este 12 Nordeste 0 -- -- 71
2019-05-27 05:00:00 10.3 12 Nordeste 17 Nordeste 0 -- -- 63
2019-05-27 04:00:00 11.7 12 Este 18 Nordeste 0 -- -- 59
2019-05-27 03:00:00 14 17 Nordeste 25 Este 0 -- -- 49
2019-05-27 02:00:00 13.4 21 Este 26 Nordeste 0 -- -- 54
2019-05-27 01:00:00 16.6 10 Norte 14 Noroeste 0 -- -- 42
2019-05-27 00:00:00 18.2 6 Noroeste 19 Oeste 0 -- -- 37
2019-05-26 23:00:00 19.3 15 Oeste 24 Oeste 0 -- -- 34
2019-05-26 22:00:00 21.2 13 Oeste 17 Oeste 0 -- -- 29
2019-05-26 21:00:00 26.2 6 Oeste 13 Noroeste 0 -- -- 17
2019-05-26 20:00:00 28.1 6 Nordeste 18 Norte 0 -- -- 13
2019-05-26 19:00:00 27.8 6 Norte 24 Nordeste 0 -- -- 11
2019-05-26 18:00:00 27 16 Nordeste 28 Nordeste 0 -- -- 12
2019-05-26 17:00:00 26.1 9 Norte 29 Nordeste 0 -- -- 14
2019-05-26 16:00:00 24.6 16 Nordeste 26 Norte 0 -- -- 18
2019-05-26 15:00:00 23.7 10 Nordeste 27 Nordeste 0 -- -- 19
2019-05-26 14:00:00 21.9 9 Nordeste 23 Nordeste 0 -- -- 24
2019-05-26 13:00:00 19.9 10 Este 23 Nordeste 0 -- -- 29
2019-05-26 12:00:00 17.5 10 Nordeste 28 Nordeste 0 -- -- 34
2019-05-26 11:00:00 15.6 13 Este 26 Nordeste 0 -- -- 40
2019-05-26 10:00:00 13.7 18 Este 27 Este 0 -- -- 46
2019-05-26 09:00:00 11.5 17 Este 23 Este 0 -- -- 55
2019-05-26 08:00:00 7.1 8 Nordeste 13 Nordeste 0 -- -- 73
2019-05-26 07:00:00 4.4 14 Este 15 Nordeste 0 -- -- 94
2019-05-26 06:00:00 4.8 8 Nordeste 13 Nordeste 0 -- -- 78
2019-05-26 05:00:00 4.7 11 Nordeste 18 Nordeste 0 -- -- 74
2019-05-26 04:00:00 6.2 13 Este 20 Este 0 -- -- 68
2019-05-26 03:00:00 8.2 12 Nordeste 28 Nordeste 0 -- -- 63
2019-05-26 02:00:00 10.1 21 Nordeste 28 Nordeste 0 -- -- 56
2019-05-26 01:00:00 11 11 Este 22 Nordeste 0 -- -- 52
2019-05-26 00:00:00 11.2 16 Nordeste 22 Nordeste 0 -- -- 50
2019-05-25 23:00:00 11.4 12 Este 17 Este 0 -- -- 45
2019-05-25 22:00:00 16.2 4 Este 11 Nordeste 0 -- -- 28
2019-05-25 21:00:00 21.8 6 Nordeste 21 Nordeste 0 -- -- 15
2019-05-25 20:00:00 22.7 10 Nordeste 26 Este 0 -- -- 13
2019-05-25 19:00:00 23 14 Este 33 Este 0 -- -- 13
2019-05-25 18:00:00 22.1 18 Nordeste 37 Nordeste 0 -- -- 14
2019-05-25 17:00:00 21.4 19 Nordeste 36 Nordeste 0 -- -- 15
2019-05-25 16:00:00 20.6 20 Nordeste 33 Nordeste 0 -- -- 19
2019-05-25 15:00:00 19.7 16 Nordeste 35 Nordeste 0 -- -- 24
2019-05-25 14:00:00 18.6 18 Nordeste 38 Nordeste 0 -- -- 25
2019-05-25 13:00:00 17.2 23 Este 41 Este 0 -- -- 31
2019-05-25 12:00:00 15.4 22 Este 36 Este 0 -- -- 37
2019-05-25 11:00:00 14.2 24 Este 38 Este 0 -- -- 43
2019-05-25 10:00:00 12.7 23 Este 43 Este 0 -- -- 49
2019-05-25 09:00:00 10.5 22 Este 31 Este 0 -- -- 60
2019-05-25 08:00:00 6.3 8 Este 9 Este 0 -- -- 90
2019-05-25 07:00:00 3 9 Este 17 Nordeste 0 -- -- 98
2019-05-25 06:00:00 4 8 Nordeste 10 Nordeste 0 -- -- 91
2019-05-25 05:00:00 5.6 6 Nordeste 14 Nordeste 0 -- -- 78
2019-05-25 04:00:00 6.6 13 Nordeste 16 Este 0 -- -- 75
2019-05-25 03:00:00 5.5 11 Este 15 Nordeste 0 -- -- 73
2019-05-25 02:00:00 7.9 13 Este 26 Este 0 -- -- 65
2019-05-25 01:00:00 9.6 21 Nordeste 35 Nordeste 0 -- -- 57
2019-05-25 00:00:00 11.4 26 Este 40 Nordeste 0 -- -- 45
2019-05-24 23:00:00 12.8 26 Este 46 Nordeste 0 -- -- 42
2019-05-24 22:00:00 15.6 26 Este 42 Nordeste 0 -- -- 32
2019-05-24 21:00:00 18.4 26 Nordeste 39 Norte 0 -- -- 15
2019-05-24 20:00:00 20.7 25 Nordeste 37 Nordeste 0 -- -- 14
2019-05-24 19:00:00 21.5 23 Nordeste 48 Nordeste 0 -- -- 9
2019-05-24 18:00:00 22.4 23 Nordeste 40 Norte 0 -- -- 11
2019-05-24 17:00:00 21.7 23 Nordeste 38 Nordeste 0 -- -- 11
2019-05-24 16:00:00 21.2 24 Nordeste 38 Nordeste 0 -- -- 11
2019-05-24 15:00:00 19.8 24 Norte 37 Norte 0 -- -- 14
2019-05-24 14:00:00 19.1 19 Nordeste 37 Nordeste 0 -- -- 19
2019-05-24 13:00:00 17.6 20 Este 31 Este 0 -- -- 28
2019-05-24 12:00:00 16.2 22 Nordeste 35 Nordeste 0 -- -- 30
2019-05-24 11:00:00 14.6 24 Nordeste 41 Nordeste 0 -- -- 29
2019-05-24 10:00:00 13 24 Nordeste 40 Nordeste 0 -- -- 34
2019-05-24 09:00:00 10.9 25 Nordeste 38 Nordeste 0 -- -- 47
2019-05-24 08:00:00 9.1 18 Nordeste 31 Nordeste 0 -- -- 62
2019-05-24 07:00:00 8.2 15 Nordeste 21 Nordeste 0 -- -- 70
2019-05-24 06:00:00 8.9 12 Nordeste 18 Nordeste 0 -- -- 77
2019-05-24 05:00:00 9.8 13 Nordeste 20 Este 0 -- -- 73
2019-05-24 04:00:00 12.3 13 Nordeste 18 Nordeste 0 -- -- 61
2019-05-24 03:00:00 11.4 4 Nordeste 14 Noroeste 0 -- -- 56
2019-05-24 02:00:00 10.7 9 Noroeste 14 Noroeste 0 -- -- 56
2019-05-24 01:00:00 10.9 6 Norte 18 Nordeste 0 -- -- 54
2019-05-24 00:00:00 12.2 4 Oeste 19 Noroeste 0 -- -- 49
2019-05-23 23:00:00 14.1 11 Noroeste 20 Noroeste 0 -- -- 43
2019-05-23 22:00:00 16.1 18 Noroeste 32 Oeste 0 -- -- 38
2019-05-23 21:00:00 18.8 23 Noroeste 36 Noroeste 0 -- -- 36
2019-05-23 20:00:00 21.4 27 Oeste 39 Oeste 0 -- -- 30
2019-05-23 19:00:00 22.1 16 Noroeste 40 Oeste 0 -- -- 21
2019-05-23 18:00:00 23.2 27 Oeste 40 Oeste 0 -- -- 15
2019-05-23 17:00:00 23.4 21 Oeste 42 Oeste 0 -- -- 14
2019-05-23 16:00:00 23.5 21 Oeste 37 Oeste 0 -- -- 21
2019-05-23 15:00:00 22.8 17 Sudoeste 35 Sudoeste 0 -- -- 23
2019-05-23 14:00:00 22.1 14 Oeste 34 Noroeste 0 -- -- 27
2019-05-23 13:00:00 21.3 16 Oeste 27 Oeste 0 -- -- 30
2019-05-23 12:00:00 19.5 13 Oeste 24 Oeste 0 -- -- 38
2019-05-23 11:00:00 17.3 14 Oeste 31 Oeste 0 -- -- 51
2019-05-23 10:00:00 15.1 11 Oeste 20 Oeste 0 -- -- 60
2019-05-23 09:00:00 12.3 7 Sudoeste 14 Sudoeste 0 -- -- 75
2019-05-23 08:00:00 10.4 6 Sudeste 10 Sudeste 0 -- -- 94
2019-05-23 07:00:00 9.3 6 Sudoeste 8 Sudoeste 0 -- -- 93
2019-05-23 06:00:00 9.2 4 Sur 7 Sudoeste 0 -- -- 84
2019-05-23 05:00:00 10 5 Sudoeste 6 Sudoeste 0 -- -- 77
2019-05-23 04:00:00 10.2 3 Sur 9 Sudoeste 0 -- -- 72
2019-05-23 03:00:00 11.5 7 Sudoeste 11 Oeste 0 -- -- 63
2019-05-23 02:00:00 12.7 5 Sudoeste 16 Oeste 0 -- -- 59
2019-05-23 01:00:00 14.5 14 Oeste 19 Oeste 0 -- -- 50
2019-05-23 00:00:00 15.7 14 Oeste 16 Oeste 0 -- -- 38
2019-05-22 23:00:00 13.6 0 Calma 5 Norte 0 -- -- 43
2019-05-22 22:00:00 19 4 Noroeste 13 Noroeste 0 -- -- 24
2019-05-22 21:00:00 23 10 Noroeste 24 Oeste 0 -- -- 17
2019-05-22 20:00:00 24.3 18 Oeste 29 Oeste 0 -- -- 14
2019-05-22 19:00:00 25.5 13 Oeste 33 Oeste 0 -- -- 13
2019-05-22 18:00:00 25.7 7 Oeste 30 Oeste 0 -- -- 13
2019-05-22 17:00:00 24.7 14 Oeste 33 Sudoeste 0 -- -- 13
2019-05-22 16:00:00 24.5 15 Oeste 33 Oeste 0 -- -- 12
2019-05-22 15:00:00 24.2 7 Sudoeste 31 Oeste 0 -- -- 14
2019-05-22 14:00:00 23.4 6 Norte 15 Nordeste 0 -- -- 16
2019-05-22 13:00:00 22 5 Norte 13 Nordeste 0 -- -- 20
2019-05-22 12:00:00 20.1 8 Este 18 Nordeste 0 -- -- 26
2019-05-22 11:00:00 16.5 10 Este 21 Nordeste 0 -- -- 38
2019-05-22 10:00:00 13.4 17 Nordeste 27 Nordeste 0 -- -- 50
2019-05-22 09:00:00 10.6 20 Nordeste 27 Nordeste 0 -- -- 60
2019-05-22 08:00:00 8.2 20 Nordeste 25 Nordeste 0 -- -- 74
2019-05-22 07:00:00 5.6 16 Nordeste 30 Nordeste 0 -- -- 81
2019-05-22 06:00:00 6.7 17 Nordeste 24 Nordeste 0 -- -- 72
2019-05-22 05:00:00 5.3 13 Nordeste 20 Nordeste 0 -- -- 69
2019-05-22 04:00:00 6.3 9 Nordeste 13 Nordeste 0 -- -- 60
2019-05-22 03:00:00 8.6 6 Nordeste 9 Nordeste 0 -- -- 50
2019-05-22 02:00:00 11.2 3 Sur 14 Sudeste 0 -- -- 39
2019-05-22 01:00:00 9.6 6 Sudeste 9 Nordeste 0 -- -- 47
2019-05-22 00:00:00 10.2 0 Calma 4 Este 0 -- -- 48
2019-05-21 23:00:00 11.6 3 Nordeste -- -- 0 -- -- 40
2019-05-21 22:00:00 15.2 4 Este 10 Noroeste 0 -- -- 30
2019-05-21 21:00:00 22 6 Noroeste 15 Norte 0 -- -- 15
2019-05-21 20:00:00 23.7 5 Nordeste 22 Norte 0 -- -- 11
2019-05-21 19:00:00 23.7 10 Norte 17 Oeste 0 -- -- 11
2019-05-21 18:00:00 23.6 8 Oeste 18 Noroeste 0 -- -- 12
2019-05-21 17:00:00 23.1 10 Este 23 Nordeste 0 -- -- 12
2019-05-21 16:00:00 22.8 11 Este 22 Nordeste 0 -- -- 12
2019-05-21 15:00:00 21.3 8 Nordeste 24 Nordeste 0 -- -- 16
2019-05-21 14:00:00 20.9 9 Este 19 Este 0 -- -- 18
2019-05-21 13:00:00 19.1 10 Norte 23 Nordeste 0 -- -- 26
2019-05-21 12:00:00 16.7 12 Norte 20 Nordeste 0 -- -- 35
2019-05-21 11:00:00 14.4 10 Nordeste 19 Nordeste 0 -- -- 44
2019-05-21 10:00:00 11.9 13 Nordeste 23 Nordeste 0 -- -- 52
2019-05-21 09:00:00 9.8 17 Nordeste 22 Nordeste 0 -- -- 59
2019-05-21 08:00:00 7.2 4 Norte 8 Norte 0 -- -- 85
2019-05-21 07:00:00 3.5 0 Calma 9 Noroeste 0 -- -- 92
2019-05-21 06:00:00 4.5 4 Noroeste 6 Este 0 -- -- 86
2019-05-21 05:00:00 4.5 4 Noroeste 13 Oeste 0 -- -- 70
2019-05-21 04:00:00 6.4 6 Noroeste 9 Noroeste 0 -- -- 65
2019-05-21 03:00:00 6.6 3 Oeste 6 Oeste 0 -- -- 66
2019-05-21 02:00:00 6 4 Sudoeste 5 Sudoeste 0 -- -- 62
2019-05-21 01:00:00 6.9 2 Sudoeste 11 Oeste 0 -- -- 57
2019-05-21 00:00:00 9.5 9 Oeste 12 Oeste 0 -- -- 46